オウル の空港の天気 - METARとTAF

オウル空港 ( EFOU / OUL ) - フィンランド Oulunsalo
飛行場実況気象(Metar)
観測時間10/21 19:20 EEST (10/21 16:20 UTC)
風向・風速東南東 7m/s
視程2700m
天気現象弱い雪
全天の4割程度の雲 雲底高度 150m
全天を覆う雲 雲底高度 700m
気温-1℃
湿度93%
気圧1009hPa
METAREFOU 211620Z AUTO 11013KT 2700 -SN SCT005 OVC023 M01/M02 Q1009
過去の天気等 Google飛行場航空写真 Wunderground天気予報

過去48時間のMETAR

飛行場予報(TAF)
発表時間: 10/21 17:24 EEST (10/21 14:24 UTC)
予報対象時間: 21日18時 EEST ~ 22日18時 EEST
風向・風速東南東 7m/s
視程10km以上
全天の8割程度の雲 雲底高度 460m
21日18時 EEST ~ 21日20時 EEST に徐々に
視程2500m
天気現象弱い雪
全天の8割程度の雲 雲底高度 240m
21日20時 EEST ~ 22日4時 EEST に一時的に
視程1400m
天気現象
全天の8割程度の雲 雲底高度 120m
22日4時 EEST ~ 22日6時 EEST に徐々に
視程8000m
天気現象弱い雨
全天の8割程度の雲 雲底高度 90m
22日6時 EEST ~ 22日18時 EEST に一時的に
視程2000m
天気現象霧雨
全天の8割程度の雲 雲底高度 150m
TAF EFOU 211424Z 2115/2215 12013KT 9999 BKN015
BECMG 2115/2117 2500 -SN BKN008
TEMPO 2117/2201 1400 SN BKN004
BECMG 2201/2203 8000 -RA BKN003
TEMPO 2203/2215 2000 DZ BKN005